createdAt,value
2017-07-28T00:00:04.929Z,936.28
2017-07-28T00:00:17.877Z,936.32
2017-07-28T00:00:31.370Z,936.31
2017-07-28T00:00:44.833Z,936.3
2017-07-28T00:00:57.728Z,936.32
2017-07-28T00:01:11.143Z,936.32
2017-07-28T00:01:24.016Z,936.33
2017-07-28T00:01:37.512Z,936.32
2017-07-28T00:01:50.999Z,936.33
2017-07-28T00:02:04.030Z,936.33
2017-07-28T00:02:16.979Z,936.34
2017-07-28T00:02:30.401Z,936.35
2017-07-28T00:02:43.820Z,936.31
2017-07-28T00:02:57.264Z,936.35
2017-07-28T00:03:10.184Z,936.29
2017-07-28T00:03:23.155Z,936.31
2017-07-28T00:03:35.539Z,936.29
2017-07-28T00:03:48.434Z,936.31
2017-07-28T00:04:01.939Z,936.3
2017-07-28T00:04:15.435Z,936.31
2017-07-28T00:04:28.899Z,936.32
2017-07-28T00:04:41.825Z,936.31
2017-07-28T00:04:54.740Z,936.31
2017-07-28T00:05:07.672Z,936.3
2017-07-28T00:05:21.156Z,936.29
2017-07-28T00:05:34.412Z,936.31
2017-07-28T00:05:47.861Z,936.34
2017-07-28T00:06:00.777Z,936.29
2017-07-28T00:06:14.248Z,936.28
2017-07-28T00:06:27.674Z,936.31
2017-07-28T00:06:41.153Z,936.28
2017-07-28T00:06:54.651Z,936.3
2017-07-28T00:07:07.552Z,936.36
2017-07-28T00:07:20.450Z,936.36
2017-07-28T00:07:33.879Z,936.33
2017-07-28T00:07:47.340Z,936.34
2017-07-28T00:08:00.751Z,936.39
2017-07-28T00:08:13.168Z,936.35
2017-07-28T00:08:26.650Z,936.35
2017-07-28T00:08:40.200Z,936.36
2017-07-28T00:08:53.291Z,936.37
2017-07-28T00:09:06.238Z,936.38
2017-07-28T00:09:19.683Z,936.37
2017-07-28T00:09:32.575Z,936.35
2017-07-28T00:09:45.593Z,936.35
2017-07-28T00:09:58.533Z,936.33
2017-07-28T00:10:12.016Z,936.33
2017-07-28T00:10:25.461Z,936.38
2017-07-28T00:10:39.164Z,936.39
2017-07-28T00:10:52.671Z,936.36
2017-07-28T00:11:06.070Z,936.37
2017-07-28T00:11:19.566Z,936.33
2017-07-28T00:11:32.526Z,936.36
2017-07-28T00:11:45.941Z,936.36
2017-07-28T00:11:59.285Z,936.37
2017-07-28T00:12:12.734Z,936.4
2017-07-28T00:12:26.176Z,936.36
2017-07-28T00:12:39.614Z,936.39
2017-07-28T00:12:53.073Z,936.4
2017-07-28T00:13:06.489Z,936.41
2017-07-28T00:13:18.955Z,936.4
2017-07-28T00:13:31.921Z,936.37
2017-07-28T00:13:44.315Z,936.33
2017-07-28T00:13:57.266Z,936.37
2017-07-28T00:14:10.720Z,936.42
2017-07-28T00:14:24.212Z,936.36
2017-07-28T00:14:37.645Z,936.44
2017-07-28T00:14:51.038Z,936.41
2017-07-28T00:15:04.512Z,936.42
2017-07-28T00:15:16.892Z,936.45
2017-07-28T00:15:30.085Z,936.39
2017-07-28T00:15:43.000Z,936.36
2017-07-28T00:15:56.443Z,936.37
2017-07-28T00:16:09.892Z,936.38
2017-07-28T00:16:23.368Z,936.43
2017-07-28T00:16:36.791Z,936.4
2017-07-28T00:16:50.278Z,936.37
2017-07-28T00:17:03.213Z,936.38
2017-07-28T00:17:16.148Z,936.37
2017-07-28T00:17:29.603Z,936.39
2017-07-28T00:17:42.510Z,936.43
2017-07-28T00:17:55.908Z,936.44
2017-07-28T00:18:09.353Z,936.39
2017-07-28T00:18:22.265Z,936.39
2017-07-28T00:18:35.761Z,936.37
2017-07-28T00:18:49.233Z,936.4
2017-07-28T00:19:02.667Z,936.4
2017-07-28T00:19:16.204Z,936.43
2017-07-28T00:19:29.665Z,936.42
2017-07-28T00:19:43.075Z,936.43
2017-07-28T00:19:56.524Z,936.35
2017-07-28T00:20:09.469Z,936.38
2017-07-28T00:20:21.870Z,936.42
2017-07-28T00:20:34.973Z,936.41
2017-07-28T00:20:48.428Z,936.46
2017-07-28T00:21:01.397Z,936.42
2017-07-28T00:21:14.304Z,936.42
2017-07-28T00:21:27.264Z,936.38
2017-07-28T00:21:40.728Z,936.38
2017-07-28T00:21:54.156Z,936.41
2017-07-28T00:22:06.578Z,936.41
2017-07-28T00:22:20.029Z,936.39
2017-07-28T00:22:32.960Z,936.42
2017-07-28T00:22:46.407Z,936.45
2017-07-28T00:22:59.932Z,936.42
2017-07-28T00:23:13.356Z,936.42
2017-07-28T00:23:26.339Z,936.44
2017-07-28T00:23:39.805Z,936.36
2017-07-28T00:23:53.210Z,936.42
2017-07-28T00:24:06.665Z,936.53
2017-07-28T00:24:19.571Z,936.46
2017-07-28T00:24:33.013Z,936.49
2017-07-28T00:24:46.422Z,936.39
2017-07-28T00:24:59.355Z,936.44
2017-07-28T00:25:12.825Z,936.49
2017-07-28T00:25:26.226Z,936.47
2017-07-28T00:25:39.686Z,936.42
2017-07-28T00:25:53.169Z,936.44
2017-07-28T00:26:06.608Z,936.46
2017-07-28T00:26:19.512Z,936.39
2017-07-28T00:26:32.935Z,936.48
2017-07-28T00:26:46.392Z,936.5
2017-07-28T00:26:59.887Z,936.47
2017-07-28T00:27:13.417Z,936.47
2017-07-28T00:27:25.813Z,936.45
2017-07-28T00:27:39.253Z,936.44
2017-07-28T00:27:52.662Z,936.48
2017-07-28T00:28:05.573Z,936.46
2017-07-28T00:28:18.514Z,936.46
2017-07-28T00:28:31.984Z,936.46
2017-07-28T00:28:45.415Z,936.49
2017-07-28T00:28:58.856Z,936.48
2017-07-28T00:29:11.779Z,936.51
2017-07-28T00:29:25.211Z,936.48
2017-07-28T00:29:38.672Z,936.47
2017-07-28T00:29:52.053Z,936.47
2017-07-28T00:30:05.525Z,936.49
2017-07-28T00:30:19.023Z,936.46
2017-07-28T00:30:31.922Z,936.44
2017-07-28T00:30:45.370Z,936.45
2017-07-28T00:30:58.838Z,936.47
2017-07-28T00:31:12.365Z,936.45
2017-07-28T00:31:25.851Z,936.48
2017-07-28T00:31:38.711Z,936.49
2017-07-28T00:31:52.200Z,936.47
2017-07-28T00:32:05.606Z,936.48
2017-07-28T00:32:18.503Z,936.45
2017-07-28T00:32:31.927Z,936.49
2017-07-28T00:32:44.790Z,936.47
2017-07-28T00:32:57.703Z,936.49
2017-07-28T00:33:10.720Z,936.49
2017-07-28T00:33:23.696Z,936.54
2017-07-28T00:33:36.637Z,936.46
2017-07-28T00:33:49.537Z,936.47
2017-07-28T00:34:03.034Z,936.46
2017-07-28T00:34:16.460Z,936.48
2017-07-28T00:34:29.894Z,936.46
2017-07-28T00:34:42.877Z,936.47
2017-07-28T00:34:56.320Z,936.48
2017-07-28T00:35:08.763Z,936.46
2017-07-28T00:35:22.188Z,936.42
2017-07-28T00:35:35.999Z,936.46
2017-07-28T00:35:48.908Z,936.51
2017-07-28T00:36:01.816Z,936.44
2017-07-28T00:36:14.738Z,936.47
2017-07-28T00:36:27.563Z,936.47
2017-07-28T00:36:41.004Z,936.49
2017-07-28T00:36:53.901Z,936.44
2017-07-28T00:37:07.304Z,936.52
2017-07-28T00:37:20.209Z,936.51
2017-07-28T00:37:32.595Z,936.44
2017-07-28T00:37:46.014Z,936.5
2017-07-28T00:37:59.527Z,936.46
2017-07-28T00:38:12.474Z,936.51
2017-07-28T00:38:25.948Z,936.47
2017-07-28T00:38:38.341Z,936.48
2017-07-28T00:38:51.825Z,936.45
2017-07-28T00:39:05.245Z,936.48
2017-07-28T00:39:18.635Z,936.49
2017-07-28T00:39:32.072Z,936.46
2017-07-28T00:39:45.515Z,936.48
2017-07-28T00:39:57.890Z,936.51
2017-07-28T00:40:11.337Z,936.52
2017-07-28T00:40:24.819Z,936.5
2017-07-28T00:40:38.055Z,936.48
2017-07-28T00:40:50.961Z,936.52
2017-07-28T00:41:03.853Z,936.52
2017-07-28T00:41:16.865Z,936.54
2017-07-28T00:41:29.777Z,936.53
2017-07-28T00:41:43.182Z,936.47
2017-07-28T00:41:56.574Z,936.53
2017-07-28T00:42:09.447Z,936.54
2017-07-28T00:42:22.430Z,936.53
2017-07-28T00:42:35.291Z,936.57
2017-07-28T00:42:48.217Z,936.52
2017-07-28T00:43:01.170Z,936.55
2017-07-28T00:43:14.638Z,936.53
2017-07-28T00:43:27.665Z,936.52
2017-07-28T00:43:41.101Z,936.5
2017-07-28T00:43:54.608Z,936.52
2017-07-28T00:44:07.549Z,936.53
2017-07-28T00:44:19.917Z,936.5
2017-07-28T00:44:33.397Z,936.53
2017-07-28T00:44:46.312Z,936.49
2017-07-28T00:44:59.813Z,936.61
2017-07-28T00:45:13.203Z,936.52
2017-07-28T00:45:26.180Z,936.54
2017-07-28T00:45:39.651Z,936.53
2017-07-28T00:45:53.190Z,936.55
2017-07-28T00:46:06.204Z,936.53
2017-07-28T00:46:19.738Z,936.52
2017-07-28T00:46:33.200Z,936.53
2017-07-28T00:46:46.662Z,936.55
2017-07-28T00:46:59.638Z,936.54
2017-07-28T00:47:13.124Z,936.54
2017-07-28T00:47:25.528Z,936.54
2017-07-28T00:47:38.978Z,936.53
2017-07-28T00:47:52.378Z,936.54
2017-07-28T00:48:05.336Z,936.54
2017-07-28T00:48:18.834Z,936.54
2017-07-28T00:48:31.729Z,936.53
2017-07-28T00:48:45.108Z,936.54
2017-07-28T00:48:58.526Z,936.53
2017-07-28T00:49:11.962Z,936.54
2017-07-28T00:49:24.963Z,936.49
2017-07-28T00:49:38.522Z,936.49
2017-07-28T00:49:50.960Z,936.52
2017-07-28T00:50:04.375Z,936.52
2017-07-28T00:50:17.287Z,936.54
2017-07-28T00:50:30.257Z,936.56
2017-07-28T00:50:43.826Z,936.54
2017-07-28T00:50:57.268Z,936.52
2017-07-28T00:51:10.771Z,936.53
2017-07-28T00:51:23.707Z,936.53
2017-07-28T00:51:36.610Z,936.52
2017-07-28T00:51:50.021Z,936.56
2017-07-28T00:52:03.490Z,936.56
2017-07-28T00:52:15.883Z,936.53
2017-07-28T00:52:29.362Z,936.55
2017-07-28T00:52:42.847Z,936.57
2017-07-28T00:52:56.341Z,936.55
2017-07-28T00:53:09.298Z,936.61
2017-07-28T00:53:22.226Z,936.59
2017-07-28T00:53:35.771Z,936.59
2017-07-28T00:53:49.202Z,936.6
2017-07-28T00:54:02.627Z,936.63
2017-07-28T00:54:16.073Z,936.56
2017-07-28T00:54:29.494Z,936.57
2017-07-28T00:54:42.437Z,936.62
2017-07-28T00:54:55.860Z,936.63
2017-07-28T00:55:09.312Z,936.56
2017-07-28T00:55:22.225Z,936.62
2017-07-28T00:55:35.221Z,936.57
2017-07-28T00:55:48.763Z,936.57
2017-07-28T00:56:02.182Z,936.61
2017-07-28T00:56:14.028Z,936.67
2017-07-28T00:56:27.508Z,936.62
2017-07-28T00:56:39.924Z,936.6
2017-07-28T00:56:53.478Z,936.61
2017-07-28T00:57:06.380Z,936.6
2017-07-28T00:57:19.310Z,936.61
2017-07-28T00:57:32.217Z,936.62
2017-07-28T00:57:45.164Z,936.63
2017-07-28T00:57:58.156Z,936.64
2017-07-28T00:58:11.660Z,936.64
2017-07-28T00:58:25.107Z,936.65
2017-07-28T00:58:37.996Z,936.66
2017-07-28T00:58:50.946Z,936.64
2017-07-28T00:59:03.846Z,936.64
2017-07-28T00:59:17.303Z,936.64
2017-07-28T00:59:30.276Z,936.63
2017-07-28T00:59:43.157Z,936.62
2017-07-28T00:59:56.572Z,936.67
2017-07-28T01:00:09.506Z,936.66
2017-07-28T01:00:23.010Z,936.64
2017-07-28T01:00:35.952Z,936.63
2017-07-28T01:00:48.889Z,936.66
2017-07-28T01:01:02.319Z,936.65
2017-07-28T01:01:15.789Z,936.64
2017-07-28T01:01:29.220Z,936.65
2017-07-28T01:01:42.172Z,936.61
2017-07-28T01:01:55.709Z,936.65
2017-07-28T01:02:09.175Z,936.68
2017-07-28T01:02:22.585Z,936.63
2017-07-28T01:02:36.147Z,936.62
2017-07-28T01:02:49.019Z,936.65
2017-07-28T01:03:02.574Z,936.69
2017-07-28T01:03:15.592Z,936.65
2017-07-28T01:03:29.006Z,936.7
2017-07-28T01:03:42.461Z,936.65
2017-07-28T01:03:54.893Z,936.68
2017-07-28T01:04:07.813Z,936.62
2017-07-28T01:04:21.209Z,936.66
2017-07-28T01:04:34.640Z,936.7
2017-07-28T01:04:48.203Z,936.67
2017-07-28T01:05:01.657Z,936.64
2017-07-28T01:05:14.020Z,936.67
2017-07-28T01:05:27.495Z,936.66
2017-07-28T01:05:40.386Z,936.68
2017-07-28T01:05:54.614Z,936.66
2017-07-28T01:06:08.043Z,936.62
2017-07-28T01:06:21.503Z,936.64
2017-07-28T01:06:34.950Z,936.64
2017-07-28T01:06:47.889Z,936.64
2017-07-28T01:07:01.420Z,936.59
2017-07-28T01:07:14.870Z,936.62
2017-07-28T01:07:28.361Z,936.6
2017-07-28T01:07:41.807Z,936.59
2017-07-28T01:07:54.742Z,936.59
2017-07-28T01:08:07.658Z,936.65
2017-07-28T01:08:20.585Z,936.6
2017-07-28T01:08:33.526Z,936.61
2017-07-28T01:08:46.960Z,936.6
2017-07-28T01:09:00.411Z,936.59
2017-07-28T01:09:13.352Z,936.61
2017-07-28T01:09:26.806Z,936.64
2017-07-28T01:09:40.252Z,936.63
2017-07-28T01:09:53.752Z,936.61
2017-07-28T01:10:06.725Z,936.61
2017-07-28T01:10:20.149Z,936.64
2017-07-28T01:10:33.131Z,936.62
2017-07-28T01:10:46.619Z,936.64
2017-07-28T01:10:59.795Z,936.66
2017-07-28T01:11:12.224Z,936.63
2017-07-28T01:11:25.096Z,936.65
2017-07-28T01:11:38.523Z,936.63
2017-07-28T01:11:51.496Z,936.62
2017-07-28T01:12:04.925Z,936.62
2017-07-28T01:12:18.324Z,936.62
2017-07-28T01:12:31.750Z,936.66
2017-07-28T01:12:44.715Z,936.61
2017-07-28T01:12:58.113Z,936.61
2017-07-28T01:13:11.598Z,936.64
2017-07-28T01:13:25.058Z,936.66
2017-07-28T01:13:38.028Z,936.65
2017-07-28T01:13:51.521Z,936.63
2017-07-28T01:14:04.918Z,936.65
2017-07-28T01:14:18.392Z,936.66
2017-07-28T01:14:31.918Z,936.61
2017-07-28T01:14:45.002Z,936.61
2017-07-28T01:14:58.479Z,936.61
2017-07-28T01:15:11.937Z,936.63
2017-07-28T01:15:25.422Z,936.59
2017-07-28T01:15:38.846Z,936.63
2017-07-28T01:15:52.295Z,936.6
2017-07-28T01:16:05.183Z,936.67
2017-07-28T01:16:17.581Z,936.6
2017-07-28T01:16:31.073Z,936.66
2017-07-28T01:16:43.436Z,936.62
2017-07-28T01:16:56.408Z,936.63
2017-07-28T01:17:09.297Z,936.64
2017-07-28T01:17:22.763Z,936.63
2017-07-28T01:17:36.182Z,936.65
2017-07-28T01:17:49.210Z,936.67
2017-07-28T01:18:02.203Z,936.58
2017-07-28T01:18:14.630Z,936.61
2017-07-28T01:18:28.349Z,936.62
2017-07-28T01:18:40.270Z,936.62
2017-07-28T01:18:53.721Z,936.73
2017-07-28T01:19:07.197Z,936.64
2017-07-28T01:19:20.686Z,936.62
2017-07-28T01:19:33.620Z,936.65
2017-07-28T01:19:47.125Z,936.68
2017-07-28T01:20:00.638Z,936.75
2017-07-28T01:20:14.109Z,936.7
2017-07-28T01:20:27.058Z,936.7
2017-07-28T01:20:40.044Z,936.68
2017-07-28T01:20:54.605Z,936.67
2017-07-28T01:21:08.040Z,936.71
2017-07-28T01:21:21.555Z,936.73
2017-07-28T01:21:34.474Z,936.7
2017-07-28T01:21:47.891Z,936.7
2017-07-28T01:22:00.273Z,936.69
2017-07-28T01:22:13.199Z,936.7
2017-07-28T01:22:26.163Z,936.71
2017-07-28T01:22:39.642Z,936.68
2017-07-28T01:22:53.088Z,936.7
2017-07-28T01:23:06.541Z,936.67
2017-07-28T01:23:19.523Z,936.68
2017-07-28T01:23:32.444Z,936.68
2017-07-28T01:23:45.926Z,936.71
2017-07-28T01:23:59.454Z,936.69
2017-07-28T01:24:12.943Z,936.66
2017-07-28T01:24:25.906Z,936.68
2017-07-28T01:24:39.397Z,936.69
2017-07-28T01:24:52.277Z,936.71
2017-07-28T01:25:05.181Z,936.69
2017-07-28T01:25:18.099Z,936.69
2017-07-28T01:25:31.080Z,936.65
2017-07-28T01:25:44.578Z,936.68
2017-07-28T01:25:58.066Z,936.71
2017-07-28T01:26:11.471Z,936.72
2017-07-28T01:26:24.421Z,936.72
2017-07-28T01:26:37.873Z,936.72
2017-07-28T01:26:50.746Z,936.72
2017-07-28T01:27:04.220Z,936.69
2017-07-28T01:27:17.713Z,936.71
2017-07-28T01:27:30.624Z,936.71
2017-07-28T01:27:44.085Z,936.7
2017-07-28T01:27:57.540Z,936.69
2017-07-28T01:28:10.975Z,936.68
2017-07-28T01:28:23.948Z,936.71
2017-07-28T01:28:36.824Z,936.7
2017-07-28T01:28:50.276Z,936.69
2017-07-28T01:29:03.732Z,936.7
2017-07-28T01:29:17.168Z,936.71
2017-07-28T01:29:30.664Z,936.73
2017-07-28T01:29:43.572Z,936.69
2017-07-28T01:29:56.479Z,936.69
2017-07-28T01:30:09.436Z,936.73
2017-07-28T01:30:22.887Z,936.67
2017-07-28T01:30:35.827Z,936.74
2017-07-28T01:30:49.253Z,936.68
2017-07-28T01:31:02.169Z,936.78
2017-07-28T01:31:15.615Z,936.72
2017-07-28T01:31:29.078Z,936.69
2017-07-28T01:31:42.546Z,936.68
2017-07-28T01:31:56.044Z,936.66
2017-07-28T01:32:08.989Z,936.7
2017-07-28T01:32:21.901Z,936.67
2017-07-28T01:32:35.290Z,936.71
2017-07-28T01:32:48.705Z,936.69
2017-07-28T01:33:02.134Z,936.7
2017-07-28T01:33:15.585Z,936.69
2017-07-28T01:33:29.045Z,936.7
2017-07-28T01:33:42.555Z,936.71
2017-07-28T01:33:56.024Z,936.69
2017-07-28T01:34:09.504Z,936.7
2017-07-28T01:34:22.425Z,936.7
2017-07-28T01:34:35.815Z,936.71
2017-07-28T01:34:49.277Z,936.69
2017-07-28T01:35:02.263Z,936.72
2017-07-28T01:35:15.154Z,936.74
2017-07-28T01:35:28.593Z,936.69
2017-07-28T01:35:42.020Z,936.67
2017-07-28T01:35:55.485Z,936.68
2017-07-28T01:36:09.177Z,936.72
2017-07-28T01:36:22.672Z,936.72
2017-07-28T01:36:36.069Z,936.68
2017-07-28T01:36:49.498Z,936.69
2017-07-28T01:37:02.956Z,936.68
2017-07-28T01:37:16.407Z,936.68
2017-07-28T01:37:29.322Z,936.69
2017-07-28T01:37:42.755Z,936.72
2017-07-28T01:37:56.244Z,936.72
2017-07-28T01:38:09.670Z,936.72
2017-07-28T01:38:22.588Z,936.67
2017-07-28T01:38:36.018Z,936.7
2017-07-28T01:38:49.444Z,936.69
2017-07-28T01:39:02.378Z,936.71
2017-07-28T01:39:15.770Z,936.71
2017-07-28T01:39:29.285Z,936.74
2017-07-28T01:39:42.735Z,936.7
2017-07-28T01:39:55.681Z,936.71
2017-07-28T01:40:09.148Z,936.68
2017-07-28T01:40:22.575Z,936.69
2017-07-28T01:40:35.497Z,936.71
2017-07-28T01:40:48.999Z,936.68
2017-07-28T01:41:02.209Z,936.67
2017-07-28T01:41:15.653Z,936.7
2017-07-28T01:41:29.092Z,936.72
2017-07-28T01:41:42.524Z,936.71
2017-07-28T01:41:55.434Z,936.68
2017-07-28T01:42:08.327Z,936.71
2017-07-28T01:42:21.739Z,936.72
2017-07-28T01:42:34.668Z,936.67
2017-07-28T01:42:48.167Z,936.71
2017-07-28T01:43:01.578Z,936.71
2017-07-28T01:43:15.043Z,936.68
2017-07-28T01:43:27.960Z,936.72
2017-07-28T01:43:41.454Z,936.74
2017-07-28T01:43:54.921Z,936.71
2017-07-28T01:44:08.427Z,936.72
2017-07-28T01:44:21.823Z,936.73
2017-07-28T01:44:35.208Z,936.74
2017-07-28T01:44:48.642Z,936.7
2017-07-28T01:45:01.568Z,936.74
2017-07-28T01:45:13.960Z,936.7
2017-07-28T01:45:27.441Z,936.76
2017-07-28T01:45:40.950Z,936.71
2017-07-28T01:45:53.909Z,936.71
2017-07-28T01:46:06.802Z,936.72
2017-07-28T01:46:20.187Z,936.71
2017-07-28T01:46:33.123Z,936.7
2017-07-28T01:46:46.623Z,936.7
2017-07-28T01:47:00.061Z,936.74
2017-07-28T01:47:12.953Z,936.74
2017-07-28T01:47:26.367Z,936.74
2017-07-28T01:47:39.311Z,936.73
2017-07-28T01:47:52.253Z,936.76
2017-07-28T01:48:05.754Z,936.74
2017-07-28T01:48:18.671Z,936.73
2017-07-28T01:48:32.159Z,936.74
2017-07-28T01:48:45.168Z,936.76
2017-07-28T01:48:58.084Z,936.71
2017-07-28T01:49:10.468Z,936.77
2017-07-28T01:49:23.888Z,936.77
2017-07-28T01:49:36.795Z,936.76
2017-07-28T01:49:49.762Z,936.73
2017-07-28T01:50:03.252Z,936.71
2017-07-28T01:50:16.717Z,936.71
2017-07-28T01:50:30.225Z,936.7
2017-07-28T01:50:43.637Z,936.66
2017-07-28T01:50:57.082Z,936.69
2017-07-28T01:51:10.570Z,936.7
2017-07-28T01:51:23.422Z,936.71
2017-07-28T01:51:36.372Z,936.69
2017-07-28T01:51:49.809Z,936.7
2017-07-28T01:52:03.242Z,936.69
2017-07-28T01:52:16.187Z,936.7
2017-07-28T01:52:29.617Z,936.68
2017-07-28T01:52:41.993Z,936.7
2017-07-28T01:52:55.464Z,936.69
2017-07-28T01:53:08.907Z,936.7
2017-07-28T01:53:22.407Z,936.67
2017-07-28T01:53:35.864Z,936.68
2017-07-28T01:53:48.751Z,936.67
2017-07-28T01:54:02.279Z,936.72
2017-07-28T01:54:15.772Z,936.72
2017-07-28T01:54:28.681Z,936.67
2017-07-28T01:54:42.129Z,936.68
2017-07-28T01:54:55.623Z,936.7
2017-07-28T01:55:08.501Z,936.66
2017-07-28T01:55:21.896Z,936.71
2017-07-28T01:55:35.296Z,936.67
2017-07-28T01:55:48.261Z,936.73
2017-07-28T01:56:01.678Z,936.71
2017-07-28T01:56:14.317Z,936.74
2017-07-28T01:56:26.708Z,936.72
2017-07-28T01:56:40.213Z,936.74
2017-07-28T01:56:53.669Z,936.76
2017-07-28T01:57:06.602Z,936.74
2017-07-28T01:57:20.030Z,936.76
2017-07-28T01:57:33.556Z,936.75
2017-07-28T01:57:46.987Z,936.73
2017-07-28T01:58:00.512Z,936.73
2017-07-28T01:58:13.417Z,936.77
2017-07-28T01:58:26.825Z,936.74
2017-07-28T01:58:40.264Z,936.77
2017-07-28T01:58:53.777Z,936.77
2017-07-28T01:59:07.173Z,936.78
2017-07-28T01:59:20.581Z,936.77
2017-07-28T01:59:34.020Z,936.79
2017-07-28T01:59:47.520Z,936.77
2017-07-28T02:00:01.039Z,936.76
2017-07-28T02:00:14.503Z,936.76
2017-07-28T02:00:27.437Z,936.77
2017-07-28T02:00:40.973Z,936.77
2017-07-28T02:00:53.913Z,936.8
2017-07-28T02:01:06.814Z,936.78
2017-07-28T02:01:20.194Z,936.74
2017-07-28T02:01:33.143Z,936.77
2017-07-28T02:01:46.609Z,936.78
2017-07-28T02:02:00.068Z,936.76
2017-07-28T02:02:12.994Z,936.75
2017-07-28T02:02:26.485Z,936.77
2017-07-28T02:02:39.421Z,936.74
2017-07-28T02:02:52.392Z,936.76
2017-07-28T02:03:05.308Z,936.76
2017-07-28T02:03:18.747Z,936.8
2017-07-28T02:03:32.215Z,936.76
2017-07-28T02:03:45.657Z,936.75
2017-07-28T02:03:59.142Z,936.77
2017-07-28T02:04:12.568Z,936.72
2017-07-28T02:04:25.522Z,936.76
2017-07-28T02:04:38.976Z,936.77
2017-07-28T02:04:51.846Z,936.72
2017-07-28T02:05:05.260Z,936.74
2017-07-28T02:05:18.709Z,936.76
2017-07-28T02:05:31.625Z,936.75
2017-07-28T02:05:44.575Z,936.76
2017-07-28T02:05:58.066Z,936.74
2017-07-28T02:06:10.924Z,936.73
2017-07-28T02:06:24.390Z,936.74
2017-07-28T02:06:37.308Z,936.73
2017-07-28T02:06:50.783Z,936.75
2017-07-28T02:07:04.234Z,936.81
2017-07-28T02:07:17.738Z,936.74
2017-07-28T02:07:31.128Z,936.76
2017-07-28T02:07:44.633Z,936.73
2017-07-28T02:07:58.087Z,936.73
2017-07-28T02:08:11.525Z,936.76
2017-07-28T02:08:24.996Z,936.76
2017-07-28T02:08:38.428Z,936.77
2017-07-28T02:08:51.851Z,936.73
2017-07-28T02:09:05.309Z,936.74
2017-07-28T02:09:18.738Z,936.78
2017-07-28T02:09:31.592Z,936.77
2017-07-28T02:09:45.084Z,936.76
2017-07-28T02:09:58.575Z,936.72
2017-07-28T02:10:12.040Z,936.72
2017-07-28T02:10:25.508Z,936.76
2017-07-28T02:10:38.947Z,936.74
2017-07-28T02:10:52.381Z,936.77
2017-07-28T02:11:05.271Z,936.72
2017-07-28T02:11:19.003Z,936.76
2017-07-28T02:11:32.547Z,936.71
2017-07-28T02:11:46.018Z,936.72
2017-07-28T02:11:59.464Z,936.76
2017-07-28T02:12:12.910Z,936.71
2017-07-28T02:12:26.329Z,936.71
2017-07-28T02:12:39.285Z,936.73
2017-07-28T02:12:52.235Z,936.71
2017-07-28T02:13:05.698Z,936.72
2017-07-28T02:13:18.607Z,936.72
2017-07-28T02:13:32.042Z,936.7
2017-07-28T02:13:45.503Z,936.69
2017-07-28T02:13:58.424Z,936.68
2017-07-28T02:14:11.977Z,936.72
2017-07-28T02:14:25.447Z,936.72
2017-07-28T02:14:38.345Z,936.71
2017-07-28T02:14:51.792Z,936.75
2017-07-28T02:15:04.722Z,936.73
2017-07-28T02:15:18.185Z,936.72
2017-07-28T02:15:31.713Z,936.67
2017-07-28T02:15:44.116Z,936.7
2017-07-28T02:15:57.034Z,936.73
2017-07-28T02:16:10.492Z,936.69
2017-07-28T02:16:23.920Z,936.75
2017-07-28T02:16:36.309Z,936.72
2017-07-28T02:16:49.201Z,936.71
2017-07-28T02:17:02.656Z,936.69
2017-07-28T02:17:16.131Z,936.73
2017-07-28T02:17:29.594Z,936.73
2017-07-28T02:17:42.989Z,936.73
2017-07-28T02:17:56.353Z,936.72
2017-07-28T02:18:09.307Z,936.73
2017-07-28T02:18:22.796Z,936.72
2017-07-28T02:18:36.243Z,936.69
2017-07-28T02:18:49.679Z,936.75
2017-07-28T02:19:02.628Z,936.71
2017-07-28T02:19:16.014Z,936.79
2017-07-28T02:19:29.538Z,936.75
2017-07-28T02:19:42.962Z,936.75
2017-07-28T02:19:56.452Z,936.75
2017-07-28T02:20:09.874Z,936.77
2017-07-28T02:20:23.318Z,936.78
2017-07-28T02:20:36.346Z,936.78
2017-07-28T02:20:49.273Z,936.76
2017-07-28T02:21:02.792Z,936.76
2017-07-28T02:21:16.203Z,936.77
2017-07-28T02:21:30.556Z,936.74
2017-07-28T02:21:43.437Z,936.76
2017-07-28T02:21:56.861Z,936.78
2017-07-28T02:22:09.841Z,936.75
2017-07-28T02:22:22.736Z,936.73
2017-07-28T02:22:36.184Z,936.76
2017-07-28T02:22:49.185Z,936.76
2017-07-28T02:23:02.710Z,936.77
2017-07-28T02:23:16.214Z,936.8
2017-07-28T02:23:29.684Z,936.78
2017-07-28T02:23:42.129Z,936.76
2017-07-28T02:23:55.612Z,936.78
2017-07-28T02:24:08.569Z,936.77
2017-07-28T02:24:20.968Z,936.75
2017-07-28T02:24:33.868Z,936.78
2017-07-28T02:24:47.284Z,936.78
2017-07-28T02:25:00.235Z,936.76
2017-07-28T02:25:13.231Z,936.74
2017-07-28T02:25:26.719Z,936.77
2017-07-28T02:25:39.681Z,936.79
2017-07-28T02:25:53.138Z,936.77
2017-07-28T02:26:06.572Z,936.75
2017-07-28T02:26:19.443Z,936.78
2017-07-28T02:26:32.928Z,936.77
2017-07-28T02:26:46.454Z,936.76
2017-07-28T02:26:59.904Z,936.73
2017-07-28T02:27:12.790Z,936.75
2017-07-28T02:27:26.148Z,936.74
2017-07-28T02:27:38.526Z,936.78
2017-07-28T02:27:51.470Z,936.73
2017-07-28T02:28:04.875Z,936.73
2017-07-28T02:28:17.270Z,936.75
2017-07-28T02:28:30.146Z,936.72
2017-07-28T02:28:43.532Z,936.75
2017-07-28T02:28:56.459Z,936.76
2017-07-28T02:29:09.367Z,936.75
2017-07-28T02:29:22.789Z,936.75
2017-07-28T02:29:36.224Z,936.71
2017-07-28T02:29:49.759Z,936.72
2017-07-28T02:30:03.226Z,936.76
2017-07-28T02:30:16.192Z,936.74
2017-07-28T02:30:29.644Z,936.73
2017-07-28T02:30:42.526Z,936.71
2017-07-28T02:30:55.930Z,936.75
2017-07-28T02:31:09.411Z,936.77
2017-07-28T02:31:22.899Z,936.73
2017-07-28T02:31:36.279Z,936.74
2017-07-28T02:31:49.709Z,936.74
2017-07-28T02:32:02.601Z,936.72
2017-07-28T02:32:16.102Z,936.72
2017-07-28T02:32:29.522Z,936.71
2017-07-28T02:32:42.414Z,936.71
2017-07-28T02:32:54.815Z,936.72
2017-07-28T02:33:08.383Z,936.72
2017-07-28T02:33:21.365Z,936.69
2017-07-28T02:33:34.298Z,936.72
2017-07-28T02:33:47.801Z,936.73
2017-07-28T02:34:01.332Z,936.71
2017-07-28T02:34:13.736Z,936.7
2017-07-28T02:34:26.585Z,936.7
2017-07-28T02:34:39.546Z,936.69
2017-07-28T02:34:52.959Z,936.69
2017-07-28T02:35:06.414Z,936.71
2017-07-28T02:35:18.820Z,936.71
2017-07-28T02:35:32.253Z,936.68
2017-07-28T02:35:45.212Z,936.72
2017-07-28T02:35:58.667Z,936.72
2017-07-28T02:36:11.614Z,936.71
2017-07-28T02:36:25.160Z,936.69
2017-07-28T02:36:39.543Z,936.71
2017-07-28T02:36:52.504Z,936.73
2017-07-28T02:37:05.449Z,936.69
2017-07-28T02:37:18.311Z,936.7
2017-07-28T02:37:30.709Z,936.72
2017-07-28T02:37:43.711Z,936.7
2017-07-28T02:37:57.103Z,936.71
2017-07-28T02:38:08.993Z,936.72
2017-07-28T02:38:22.413Z,936.69
2017-07-28T02:38:35.322Z,936.7
2017-07-28T02:38:48.802Z,936.71
2017-07-28T02:39:01.692Z,936.69
2017-07-28T02:39:15.152Z,936.71
2017-07-28T02:39:28.583Z,936.71
2017-07-28T02:39:41.547Z,936.73
2017-07-28T02:39:54.991Z,936.73
2017-07-28T02:40:07.969Z,936.73
2017-07-28T02:40:20.954Z,936.73
2017-07-28T02:40:33.940Z,936.7
2017-07-28T02:40:46.848Z,936.69
2017-07-28T02:41:00.277Z,936.71
2017-07-28T02:41:13.756Z,936.74
2017-07-28T02:41:27.262Z,936.74
2017-07-28T02:41:40.424Z,936.71
2017-07-28T02:41:53.838Z,936.73
2017-07-28T02:42:06.763Z,936.72
2017-07-28T02:42:20.218Z,936.74
2017-07-28T02:42:33.125Z,936.73
2017-07-28T02:42:46.545Z,936.7
2017-07-28T02:42:59.538Z,936.72
2017-07-28T02:43:12.962Z,936.71
2017-07-28T02:43:25.868Z,936.71
2017-07-28T02:43:39.318Z,936.73
2017-07-28T02:43:52.732Z,936.75
2017-07-28T02:44:06.197Z,936.77
2017-07-28T02:44:19.135Z,936.77
2017-07-28T02:44:32.632Z,936.73
2017-07-28T02:44:46.089Z,936.76
2017-07-28T02:44:59.539Z,936.72
2017-07-28T02:45:12.492Z,936.75
2017-07-28T02:45:25.956Z,936.74